sensor_id;sensor_type;location;lat;lon;timestamp;pressure;altitude;pressure_sealevel;temperature
85096;BMP280;75436;53.502;10.030;2024-02-04T00:00:27;101580.47;;;7.02
85096;BMP280;75436;53.502;10.030;2024-02-04T00:02:53;101569.28;;;6.92
85096;BMP280;75436;53.502;10.030;2024-02-04T00:05:18;101561.47;;;6.87
85096;BMP280;75436;53.502;10.030;2024-02-04T00:07:44;101557.03;;;6.87
85096;BMP280;75436;53.502;10.030;2024-02-04T00:10:11;101552.06;;;6.91
85096;BMP280;75436;53.502;10.030;2024-02-04T00:12:37;101551.28;;;6.90
85096;BMP280;75436;53.502;10.030;2024-02-04T00:15:03;101552.38;;;6.80
85096;BMP280;75436;53.502;10.030;2024-02-04T00:17:31;101548.69;;;6.85
85096;BMP280;75436;53.502;10.030;2024-02-04T00:19:59;101555.53;;;6.72
85096;BMP280;75436;53.502;10.030;2024-02-04T00:22:27;101536.47;;;6.71
85096;BMP280;75436;53.502;10.030;2024-02-04T00:24:53;101546.34;;;6.79
85096;BMP280;75436;53.502;10.030;2024-02-04T00:27:19;101554.75;;;6.71
85096;BMP280;75436;53.502;10.030;2024-02-04T00:29:45;101551.09;;;6.67
85096;BMP280;75436;53.502;10.030;2024-02-04T00:32:10;101543.03;;;6.59
85096;BMP280;75436;53.502;10.030;2024-02-04T00:34:36;101561.00;;;6.65
85096;BMP280;75436;53.502;10.030;2024-02-04T00:37:01;101553.47;;;6.59
85096;BMP280;75436;53.502;10.030;2024-02-04T00:39:27;101525.50;;;6.64
85096;BMP280;75436;53.502;10.030;2024-02-04T00:41:53;101526.59;;;6.63
85096;BMP280;75436;53.502;10.030;2024-02-04T00:44:18;101519.28;;;6.55
85096;BMP280;75436;53.502;10.030;2024-02-04T00:46:44;101498.84;;;6.82
85096;BMP280;75436;53.502;10.030;2024-02-04T00:49:09;101504.91;;;6.68
85096;BMP280;75436;53.502;10.030;2024-02-04T00:51:35;101502.31;;;6.53
85096;BMP280;75436;53.502;10.030;2024-02-04T00:54:00;101485.91;;;6.52
85096;BMP280;75436;53.502;10.030;2024-02-04T00:56:26;101472.84;;;6.52
85096;BMP280;75436;53.502;10.030;2024-02-04T00:58:51;101473.41;;;6.40
85096;BMP280;75436;53.502;10.030;2024-02-04T01:01:17;101448.84;;;6.51
85096;BMP280;75436;53.502;10.030;2024-02-04T01:03:43;101459.06;;;6.42
85096;BMP280;75436;53.502;10.030;2024-02-04T01:06:08;101458.53;;;6.50
85096;BMP280;75436;53.502;10.030;2024-02-04T01:08:34;101459.56;;;6.44
85096;BMP280;75436;53.502;10.030;2024-02-04T01:11:02;101453.31;;;6.50
85096;BMP280;75436;53.502;10.030;2024-02-04T01:13:28;101462.34;;;6.67
85096;BMP280;75436;53.502;10.030;2024-02-04T01:15:53;101465.50;;;6.69
85096;BMP280;75436;53.502;10.030;2024-02-04T01:18:19;101473.84;;;6.71
85096;BMP280;75436;53.502;10.030;2024-02-04T01:20:45;101498.06;;;6.86
85096;BMP280;75436;53.502;10.030;2024-02-04T01:23:11;101498.53;;;6.93
85096;BMP280;75436;53.502;10.030;2024-02-04T01:25:38;101498.25;;;6.95
85096;BMP280;75436;53.502;10.030;2024-02-04T01:28:05;101502.22;;;6.82
85096;BMP280;75436;53.502;10.030;2024-02-04T01:30:31;101508.94;;;6.98
85096;BMP280;75436;53.502;10.030;2024-02-04T01:32:56;101483.41;;;6.90
85096;BMP280;75436;53.502;10.030;2024-02-04T01:35:22;101483.63;;;6.94
85096;BMP280;75436;53.502;10.030;2024-02-04T01:37:47;101504.47;;;7.04
85096;BMP280;75436;53.502;10.030;2024-02-04T01:40:15;101493.56;;;6.97
85096;BMP280;75436;53.502;10.030;2024-02-04T01:42:41;101489.34;;;7.01
85096;BMP280;75436;53.502;10.030;2024-02-04T01:45:06;101496.13;;;7.02
85096;BMP280;75436;53.502;10.030;2024-02-04T01:47:32;101503.41;;;7.10
85096;BMP280;75436;53.502;10.030;2024-02-04T01:49:58;101495.06;;;7.08
85096;BMP280;75436;53.502;10.030;2024-02-04T01:52:24;101496.00;;;7.21
85096;BMP280;75436;53.502;10.030;2024-02-04T01:54:52;101513.56;;;7.16
85096;BMP280;75436;53.502;10.030;2024-02-04T01:57:19;101511.19;;;7.19
85096;BMP280;75436;53.502;10.030;2024-02-04T01:59:45;101510.16;;;7.15
85096;BMP280;75436;53.502;10.030;2024-02-04T02:02:11;101515.31;;;7.30
85096;BMP280;75436;53.502;10.030;2024-02-04T02:04:36;101518.69;;;7.31
85096;BMP280;75436;53.502;10.030;2024-02-04T02:07:03;101504.03;;;7.35
85096;BMP280;75436;53.502;10.030;2024-02-04T02:09:29;101516.59;;;7.28
85096;BMP280;75436;53.502;10.030;2024-02-04T02:12:12;101519.47;;;7.31
85096;BMP280;75436;53.502;10.030;2024-02-04T02:14:44;101511.91;;;7.30
85096;BMP280;75436;53.502;10.030;2024-02-04T02:17:16;101507.72;;;7.29
85096;BMP280;75436;53.502;10.030;2024-02-04T02:19:57;101509.03;;;7.31
85096;BMP280;75436;53.502;10.030;2024-02-04T02:22:55;101506.41;;;7.31
85096;BMP280;75436;53.502;10.030;2024-02-04T02:25:26;101511.59;;;7.41
85096;BMP280;75436;53.502;10.030;2024-02-04T02:27:52;101507.94;;;7.37
85096;BMP280;75436;53.502;10.030;2024-02-04T02:30:18;101507.41;;;7.35
85096;BMP280;75436;53.502;10.030;2024-02-04T02:32:44;101494.84;;;7.42
85096;BMP280;75436;53.502;10.030;2024-02-04T02:35:15;101486.28;;;7.32
85096;BMP280;75436;53.502;10.030;2024-02-04T02:37:59;101474.03;;;7.27
85096;BMP280;75436;53.502;10.030;2024-02-04T02:40:45;101485.25;;;7.33
85096;BMP280;75436;53.502;10.030;2024-02-04T02:43:15;101485.28;;;7.23
85096;BMP280;75436;53.502;10.030;2024-02-04T02:45:41;101484.47;;;7.27
85096;BMP280;75436;53.502;10.030;2024-02-04T02:48:08;101471.00;;;7.15
85096;BMP280;75436;53.502;10.030;2024-02-04T02:50:35;101463.66;;;7.17
85096;BMP280;75436;53.502;10.030;2024-02-04T02:53:01;101466.53;;;7.16
85096;BMP280;75436;53.502;10.030;2024-02-04T02:55:27;101475.41;;;7.20
85096;BMP280;75436;53.502;10.030;2024-02-04T02:57:52;101467.88;;;7.09
85096;BMP280;75436;53.502;10.030;2024-02-04T03:00:18;101478.34;;;7.09
85096;BMP280;75436;53.502;10.030;2024-02-04T03:02:43;101466.06;;;7.04
85096;BMP280;75436;53.502;10.030;2024-02-04T03:05:09;101462.75;;;6.94
85096;BMP280;75436;53.502;10.030;2024-02-04T03:07:35;101455.13;;;7.02
85096;BMP280;75436;53.502;10.030;2024-02-04T03:10:00;101456.72;;;6.98
85096;BMP280;75436;53.502;10.030;2024-02-04T03:12:25;101463.53;;;6.94
85096;BMP280;75436;53.502;10.030;2024-02-04T03:14:51;101453.38;;;6.88
85096;BMP280;75436;53.502;10.030;2024-02-04T03:17:16;101445.50;;;6.98
85096;BMP280;75436;53.502;10.030;2024-02-04T03:19:46;101446.03;;;6.90
85096;BMP280;75436;53.502;10.030;2024-02-04T03:22:14;101438.78;;;6.87
85096;BMP280;75436;53.502;10.030;2024-02-04T03:24:40;101448.66;;;6.95
85096;BMP280;75436;53.502;10.030;2024-02-04T03:27:05;101444.47;;;6.99
85096;BMP280;75436;53.502;10.030;2024-02-04T03:29:31;101454.41;;;6.97
85096;BMP280;75436;53.502;10.030;2024-02-04T03:31:56;101444.25;;;6.85
85096;BMP280;75436;53.502;10.030;2024-02-04T03:34:22;101436.72;;;6.84
85096;BMP280;75436;53.502;10.030;2024-02-04T03:36:47;101447.41;;;6.82
85096;BMP280;75436;53.502;10.030;2024-02-04T03:39:12;101442.69;;;6.84
85096;BMP280;75436;53.502;10.030;2024-02-04T03:41:38;101439.56;;;6.87
85096;BMP280;75436;53.502;10.030;2024-02-04T03:44:04;101435.16;;;6.78
85096;BMP280;75436;53.502;10.030;2024-02-04T03:46:29;101435.16;;;6.78
85096;BMP280;75436;53.502;10.030;2024-02-04T03:48:55;101437.22;;;6.81
85096;BMP280;75436;53.502;10.030;2024-02-04T03:51:20;101431.19;;;6.85
85096;BMP280;75436;53.502;10.030;2024-02-04T03:53:47;101421.91;;;6.70
85096;BMP280;75436;53.502;10.030;2024-02-04T03:56:13;101433.06;;;6.80
85096;BMP280;75436;53.502;10.030;2024-02-04T03:58:38;101419.31;;;6.65
85096;BMP280;75436;53.502;10.030;2024-02-04T04:01:04;101396.84;;;6.64
85096;BMP280;75436;53.502;10.030;2024-02-04T04:03:30;101409.91;;;6.64
85096;BMP280;75436;53.502;10.030;2024-02-04T04:05:55;101398.47;;;6.55
85096;BMP280;75436;53.502;10.030;2024-02-04T04:08:21;101391.47;;;6.46
85096;BMP280;75436;53.502;10.030;2024-02-04T04:10:46;101387.56;;;6.48
85096;BMP280;75436;53.502;10.030;2024-02-04T04:13:12;101389.06;;;6.54
85096;BMP280;75436;53.502;10.030;2024-02-04T04:15:38;101381.47;;;6.62
85096;BMP280;75436;53.502;10.030;2024-02-04T04:18:04;101374.72;;;6.56
85096;BMP280;75436;53.502;10.030;2024-02-04T04:20:30;101380.97;;;6.55
85096;BMP280;75436;53.502;10.030;2024-02-04T04:22:56;101371.41;;;6.46
85096;BMP280;75436;53.502;10.030;2024-02-04T04:25:22;101362.47;;;6.52
85096;BMP280;75436;53.502;10.030;2024-02-04T04:27:47;101363.22;;;6.57
85096;BMP280;75436;53.502;10.030;2024-02-04T04:30:13;101366.41;;;6.50
85096;BMP280;75436;53.502;10.030;2024-02-04T04:32:38;101365.34;;;6.51
85096;BMP280;75436;53.502;10.030;2024-02-04T04:35:04;101356.78;;;6.45
85096;BMP280;75436;53.502;10.030;2024-02-04T04:37:29;101359.41;;;6.40
85096;BMP280;75436;53.502;10.030;2024-02-04T04:39:55;101365.38;;;6.46
85096;BMP280;75436;53.502;10.030;2024-02-04T04:42:20;101353.94;;;6.37
85096;BMP280;75436;53.502;10.030;2024-02-04T04:44:46;101356.84;;;6.35
85096;BMP280;75436;53.502;10.030;2024-02-04T04:47:11;101335.16;;;6.40
85096;BMP280;75436;53.502;10.030;2024-02-04T04:49:37;101339.81;;;6.48
85096;BMP280;75436;53.502;10.030;2024-02-04T04:52:02;101343.22;;;6.43
85096;BMP280;75436;53.502;10.030;2024-02-04T04:54:28;101320.53;;;6.39
85096;BMP280;75436;53.502;10.030;2024-02-04T04:56:53;101313.22;;;6.41
85096;BMP280;75436;53.502;10.030;2024-02-04T04:59:19;101307.41;;;6.53
85096;BMP280;75436;53.502;10.030;2024-02-04T05:01:45;101312.41;;;6.45
85096;BMP280;75436;53.502;10.030;2024-02-04T05:04:15;101292.94;;;6.38
85096;BMP280;75436;53.502;10.030;2024-02-04T05:06:41;101283.53;;;6.32
85096;BMP280;75436;53.502;10.030;2024-02-04T05:09:07;101281.72;;;6.37
85096;BMP280;75436;53.502;10.030;2024-02-04T05:11:32;101276.50;;;6.37
85096;BMP280;75436;53.502;10.030;2024-02-04T05:13:58;101287.97;;;6.36
85096;BMP280;75436;53.502;10.030;2024-02-04T05:16:23;101295.41;;;6.52
85096;BMP280;75436;53.502;10.030;2024-02-04T05:18:48;101304.06;;;6.43
85096;BMP280;75436;53.502;10.030;2024-02-04T05:21:14;101291.13;;;6.33
85096;BMP280;75436;53.502;10.030;2024-02-04T05:23:39;101272.06;;;6.33
85096;BMP280;75436;53.502;10.030;2024-02-04T05:26:05;101263.47;;;6.37
85096;BMP280;75436;53.502;10.030;2024-02-04T05:28:31;101276.75;;;6.36
85096;BMP280;75436;53.502;10.030;2024-02-04T05:30:57;101271.53;;;6.31
85096;BMP280;75436;53.502;10.030;2024-02-04T05:33:22;101259.81;;;6.33
85096;BMP280;75436;53.502;10.030;2024-02-04T05:35:48;101256.19;;;6.29
85096;BMP280;75436;53.502;10.030;2024-02-04T05:38:13;101269.69;;;6.36
85096;BMP280;75436;53.502;10.030;2024-02-04T05:40:39;101269.44;;;6.38
85096;BMP280;75436;53.502;10.030;2024-02-04T05:43:05;101263.25;;;6.24
85096;BMP280;75436;53.502;10.030;2024-02-04T05:45:33;101258.09;;;6.14
85096;BMP280;75436;53.502;10.030;2024-02-04T05:47:59;101237.16;;;6.29
85096;BMP280;75436;53.502;10.030;2024-02-04T05:50:24;101250.19;;;6.29
85096;BMP280;75436;53.502;10.030;2024-02-04T05:52:49;101242.94;;;6.16
85096;BMP280;75436;53.502;10.030;2024-02-04T05:55:15;101233.66;;;6.38
85096;BMP280;75436;53.502;10.030;2024-02-04T05:57:40;101253.94;;;6.51
85096;BMP280;75436;53.502;10.030;2024-02-04T06:00:09;101256.34;;;6.43
85096;BMP280;75436;53.502;10.030;2024-02-04T06:02:35;101258.50;;;6.31
85096;BMP280;75436;53.502;10.030;2024-02-04T06:05:01;101269.44;;;6.38
85096;BMP280;75436;53.502;10.030;2024-02-04T06:07:27;101275.72;;;6.32
85096;BMP280;75436;53.502;10.030;2024-02-04T06:09:54;101271.22;;;6.42
85096;BMP280;75436;53.502;10.030;2024-02-04T06:12:24;101264.75;;;6.35
85096;BMP280;75436;53.502;10.030;2024-02-04T06:14:50;101278.78;;;6.44
85096;BMP280;75436;53.502;10.030;2024-02-04T06:17:15;101276.75;;;6.36
85096;BMP280;75436;53.502;10.030;2024-02-04T06:19:40;101259.56;;;6.30
85096;BMP280;75436;53.502;10.030;2024-02-04T06:22:06;101269.34;;;6.48
85096;BMP280;75436;53.502;10.030;2024-02-04T06:24:31;101269.94;;;6.40
85096;BMP280;75436;53.502;10.030;2024-02-04T06:26:57;101264.22;;;6.33
85096;BMP280;75436;53.502;10.030;2024-02-04T06:29:22;101251.47;;;6.31
85096;BMP280;75436;53.502;10.030;2024-02-04T06:31:47;101269.13;;;6.39
85096;BMP280;75436;53.502;10.030;2024-02-04T06:34:13;101257.44;;;6.37
85096;BMP280;75436;53.502;10.030;2024-02-04T06:36:42;101244.94;;;6.34
85096;BMP280;75436;53.502;10.030;2024-02-04T06:39:08;101251.44;;;6.36
85096;BMP280;75436;53.502;10.030;2024-02-04T06:41:34;101257.13;;;6.48
85096;BMP280;75436;53.502;10.030;2024-02-04T06:44:00;101260.75;;;6.47
85096;BMP280;75436;53.502;10.030;2024-02-04T06:46:27;101264.97;;;6.38
85096;BMP280;75436;53.502;10.030;2024-02-04T06:48:53;101271.97;;;6.48
85096;BMP280;75436;53.502;10.030;2024-02-04T06:51:19;101272.97;;;6.51
85096;BMP280;75436;53.502;10.030;2024-02-04T06:53:45;101270.16;;;6.43
85096;BMP280;75436;53.502;10.030;2024-02-04T06:56:11;101268.09;;;6.40
85096;BMP280;75436;53.502;10.030;2024-02-04T06:58:38;101262.94;;;6.35
85096;BMP280;75436;53.502;10.030;2024-02-04T07:01:06;101262.63;;;6.42
85096;BMP280;75436;53.502;10.030;2024-02-04T07:03:31;101255.88;;;6.36
85096;BMP280;75436;53.502;10.030;2024-02-04T07:06:00;101261.09;;;6.36
85096;BMP280;75436;53.502;10.030;2024-02-04T07:08:26;101264.44;;;6.41
85096;BMP280;75436;53.502;10.030;2024-02-04T07:10:52;101245.88;;;6.48
85096;BMP280;75436;53.502;10.030;2024-02-04T07:13:18;101240.44;;;6.44
85096;BMP280;75436;53.502;10.030;2024-02-04T07:15:43;101240.13;;;6.51
85096;BMP280;75436;53.502;10.030;2024-02-04T07:18:09;101252.66;;;6.49
85096;BMP280;75436;53.502;10.030;2024-02-04T07:20:35;101260.97;;;6.51
85096;BMP280;75436;53.502;10.030;2024-02-04T07:23:01;101281.31;;;6.53
85096;BMP280;75436;53.502;10.030;2024-02-04T07:25:27;101282.16;;;6.49
85096;BMP280;75436;53.502;10.030;2024-02-04T07:27:53;101269.59;;;6.51
85096;BMP280;75436;53.502;10.030;2024-02-04T07:30:19;101270.88;;;6.53
85096;BMP280;75436;53.502;10.030;2024-02-04T07:32:46;101253.69;;;6.48
85096;BMP280;75436;53.502;10.030;2024-02-04T07:35:12;101255.22;;;6.53
85096;BMP280;75436;53.502;10.030;2024-02-04T07:37:38;101270.84;;;6.63
85096;BMP280;75436;53.502;10.030;2024-02-04T07:40:06;101258.59;;;6.54
85096;BMP280;75436;53.502;10.030;2024-02-04T07:42:32;101248.41;;;6.57
85096;BMP280;75436;53.502;10.030;2024-02-04T07:44:57;101251.00;;;6.62
85096;BMP280;75436;53.502;10.030;2024-02-04T07:47:23;101265.34;;;6.65
85096;BMP280;75436;53.502;10.030;2024-02-04T07:49:49;101256.22;;;6.62
85096;BMP280;75436;53.502;10.030;2024-02-04T07:52:15;101253.59;;;6.62
85096;BMP280;75436;53.502;10.030;2024-02-04T07:54:41;101254.88;;;6.65
85096;BMP280;75436;53.502;10.030;2024-02-04T07:57:09;101275.16;;;6.78
85096;BMP280;75436;53.502;10.030;2024-02-04T07:59:35;101271.81;;;6.72
85096;BMP280;75436;53.502;10.030;2024-02-04T08:02:01;101260.25;;;6.78
85096;BMP280;75436;53.502;10.030;2024-02-04T08:04:27;101250.84;;;6.77
85096;BMP280;75436;53.502;10.030;2024-02-04T08:06:53;101256.59;;;6.79
85096;BMP280;75436;53.502;10.030;2024-02-04T08:09:20;101254.78;;;6.80
85096;BMP280;75436;53.502;10.030;2024-02-04T08:11:46;101260.50;;;6.82
85096;BMP280;75436;53.502;10.030;2024-02-04T08:14:12;101269.31;;;6.90
85096;BMP280;75436;53.502;10.030;2024-02-04T08:16:40;101254.97;;;6.88
85096;BMP280;75436;53.502;10.030;2024-02-04T08:19:07;101258.03;;;6.95
85096;BMP280;75436;53.502;10.030;2024-02-04T08:21:33;101272.13;;;6.94
85096;BMP280;75436;53.502;10.030;2024-02-04T08:24:05;101257.72;;;7.01
85096;BMP280;75436;53.502;10.030;2024-02-04T08:26:30;101281.69;;;7.08
85096;BMP280;75436;53.502;10.030;2024-02-04T08:28:56;101289.56;;;7.03
85096;BMP280;75436;53.502;10.030;2024-02-04T08:31:21;101277.22;;;7.09
85096;BMP280;75436;53.502;10.030;2024-02-04T08:33:47;101268.66;;;7.03
85096;BMP280;75436;53.502;10.030;2024-02-04T08:36:12;101270.97;;;7.10
85096;BMP280;75436;53.502;10.030;2024-02-04T08:38:37;101279.13;;;7.03
85096;BMP280;75436;53.502;10.030;2024-02-04T08:41:03;101264.66;;;7.11
85096;BMP280;75436;53.502;10.030;2024-02-04T08:43:29;101280.53;;;7.19
85096;BMP280;75436;53.502;10.030;2024-02-04T08:45:56;101294.28;;;7.29
85096;BMP280;75436;53.502;10.030;2024-02-04T08:48:22;101316.53;;;7.50
85096;BMP280;75436;53.502;10.030;2024-02-04T08:50:47;101297.97;;;7.23
85096;BMP280;75436;53.502;10.030;2024-02-04T08:53:13;101292.56;;;7.20
85096;BMP280;75436;53.502;10.030;2024-02-04T08:55:38;101303.41;;;7.32
85096;BMP280;75436;53.502;10.030;2024-02-04T08:58:04;101305.66;;;7.38
85096;BMP280;75436;53.502;10.030;2024-02-04T09:00:30;101284.91;;;7.28
85096;BMP280;75436;53.502;10.030;2024-02-04T09:02:56;101271.06;;;7.23
85096;BMP280;75436;53.502;10.030;2024-02-04T09:05:22;101269.75;;;7.25
85096;BMP280;75436;53.502;10.030;2024-02-04T09:07:48;101273.97;;;7.44
85096;BMP280;75436;53.502;10.030;2024-02-04T09:10:15;101255.00;;;7.39
85096;BMP280;75436;53.502;10.030;2024-02-04T09:12:40;101260.75;;;7.36
85096;BMP280;75436;53.502;10.030;2024-02-04T09:15:07;101266.81;;;7.32
85096;BMP280;75436;53.502;10.030;2024-02-04T09:17:33;101276.41;;;7.41
85096;BMP280;75436;53.502;10.030;2024-02-04T09:20:02;101270.94;;;7.38
85096;BMP280;75436;53.502;10.030;2024-02-04T09:22:27;101265.41;;;7.44
85096;BMP280;75436;53.502;10.030;2024-02-04T09:25:02;101280.22;;;7.48
85096;BMP280;75436;53.502;10.030;2024-02-04T09:27:29;101292.47;;;7.53
85096;BMP280;75436;53.502;10.030;2024-02-04T09:29:54;101285.25;;;7.68
85096;BMP280;75436;53.502;10.030;2024-02-04T09:32:21;101303.88;;;7.62
85096;BMP280;75436;53.502;10.030;2024-02-04T09:34:47;101286.69;;;7.56
85096;BMP280;75436;53.502;10.030;2024-02-04T09:37:13;101297.81;;;7.66
85096;BMP280;75436;53.502;10.030;2024-02-04T09:39:38;101304.53;;;7.72
85096;BMP280;75436;53.502;10.030;2024-02-04T09:42:04;101307.13;;;7.72
85096;BMP280;75436;53.502;10.030;2024-02-04T09:44:30;101319.34;;;7.81
85096;BMP280;75436;53.502;10.030;2024-02-04T09:47:00;101319.84;;;7.83
85096;BMP280;75436;53.502;10.030;2024-02-04T09:49:27;101322.44;;;7.83
85096;BMP280;75436;53.502;10.030;2024-02-04T09:51:53;101314.63;;;8.02
85096;BMP280;75436;53.502;10.030;2024-02-04T09:54:22;101316.53;;;7.96
85096;BMP280;75436;53.502;10.030;2024-02-04T09:56:50;101318.13;;;8.15
85096;BMP280;75436;53.502;10.030;2024-02-04T09:59:17;101334.50;;;8.03
85096;BMP280;75436;53.502;10.030;2024-02-04T10:01:43;101338.13;;;8.06
85096;BMP280;75436;53.502;10.030;2024-02-04T10:04:09;101330.31;;;8.02
85096;BMP280;75436;53.502;10.030;2024-02-04T10:06:35;101322.19;;;7.85
85096;BMP280;75436;53.502;10.030;2024-02-04T10:09:00;101315.38;;;7.84
85096;BMP280;75436;53.502;10.030;2024-02-04T10:11:26;101303.94;;;7.98
85096;BMP280;75436;53.502;10.030;2024-02-04T10:13:51;101318.41;;;7.91
85096;BMP280;75436;53.502;10.030;2024-02-04T10:16:17;101312.84;;;7.97
85096;BMP280;75436;53.502;10.030;2024-02-04T10:18:46;101297.63;;;8.04
85096;BMP280;75436;53.502;10.030;2024-02-04T10:21:15;101294.75;;;8.01
85096;BMP280;75436;53.502;10.030;2024-02-04T10:23:42;101294.94;;;8.27
85096;BMP280;75436;53.502;10.030;2024-02-04T10:26:08;101301.78;;;8.05
85096;BMP280;75436;53.502;10.030;2024-02-04T10:28:33;101296.03;;;8.03
85096;BMP280;75436;53.502;10.030;2024-02-04T10:30:58;101298.66;;;8.03
85096;BMP280;75436;53.502;10.030;2024-02-04T10:33:24;101301.28;;;8.03
85096;BMP280;75436;53.502;10.030;2024-02-04T10:35:49;101292.44;;;8.17
85096;BMP280;75436;53.502;10.030;2024-02-04T10:38:15;101289.00;;;8.22
85096;BMP280;75436;53.502;10.030;2024-02-04T10:40:40;101288.97;;;8.04
85096;BMP280;75436;53.502;10.030;2024-02-04T10:43:07;101283.47;;;8.05
85096;BMP280;75436;53.502;10.030;2024-02-04T10:45:35;101275.25;;;8.11
85096;BMP280;75436;53.502;10.030;2024-02-04T10:48:05;101284.44;;;8.09
85096;BMP280;75436;53.502;10.030;2024-02-04T10:50:34;101277.09;;;8.11
85096;BMP280;75436;53.502;10.030;2024-02-04T10:53:05;101273.97;;;8.09
85096;BMP280;75436;53.502;10.030;2024-02-04T10:55:37;101278.75;;;8.07
85096;BMP280;75436;53.502;10.030;2024-02-04T10:58:06;101259.38;;;8.26
85096;BMP280;75436;53.502;10.030;2024-02-04T11:00:32;101285.81;;;8.25
85096;BMP280;75436;53.502;10.030;2024-02-04T11:02:58;101280.72;;;8.15
85096;BMP280;75436;53.502;10.030;2024-02-04T11:05:26;101293.19;;;8.23
85096;BMP280;75436;53.502;10.030;2024-02-04T11:07:52;101277.94;;;8.25
85096;BMP280;75436;53.502;10.030;2024-02-04T11:10:18;101275.28;;;8.30
85096;BMP280;75436;53.502;10.030;2024-02-04T11:12:45;101285.59;;;8.21
85096;BMP280;75436;53.502;10.030;2024-02-04T11:15:15;101278.94;;;8.29
85096;BMP280;75436;53.502;10.030;2024-02-04T11:24:05;101280.72;;;8.33
85096;BMP280;75436;53.502;10.030;2024-02-04T11:26:43;101273.91;;;8.50
85096;BMP280;75436;53.502;10.030;2024-02-04T11:29:09;101282.41;;;8.42
85096;BMP280;75436;53.502;10.030;2024-02-04T11:31:38;101261.53;;;8.37
85096;BMP280;75436;53.502;10.030;2024-02-04T11:34:08;101273.00;;;8.41
85096;BMP280;75436;53.502;10.030;2024-02-04T11:36:42;101271.06;;;8.47
85096;BMP280;75436;53.502;10.030;2024-02-04T11:39:15;101288.81;;;8.68
85096;BMP280;75436;53.502;10.030;2024-02-04T11:41:47;101292.00;;;8.47
85096;BMP280;75436;53.502;10.030;2024-02-04T11:44:22;101279.84;;;8.56
85096;BMP280;75436;53.502;10.030;2024-02-04T11:46:52;101282.66;;;8.59
85096;BMP280;75436;53.502;10.030;2024-02-04T11:49:24;101276.38;;;8.60
85096;BMP280;75436;53.502;10.030;2024-02-04T11:51:51;101291.41;;;8.86
85096;BMP280;75436;53.502;10.030;2024-02-04T11:54:18;101281.81;;;8.82
85096;BMP280;75436;53.502;10.030;2024-02-04T11:56:45;101277.38;;;8.64
85096;BMP280;75436;53.502;10.030;2024-02-04T11:59:18;101283.00;;;8.71
85096;BMP280;75436;53.502;10.030;2024-02-04T12:01:46;101282.03;;;8.67
85096;BMP280;75436;53.502;10.030;2024-02-04T12:04:13;101275.06;;;8.76
85096;BMP280;75436;53.502;10.030;2024-02-04T12:06:40;101273.38;;;8.98
85096;BMP280;75436;53.502;10.030;2024-02-04T12:09:08;101283.03;;;8.84
85096;BMP280;75436;53.502;10.030;2024-02-04T12:11:35;101272.56;;;8.84
85096;BMP280;75436;53.502;10.030;2024-02-04T12:14:04;101272.53;;;8.71
85096;BMP280;75436;53.502;10.030;2024-02-04T12:16:32;101265.16;;;8.73
85096;BMP280;75436;53.502;10.030;2024-02-04T12:19:00;101274.09;;;8.85
85096;BMP280;75436;53.502;10.030;2024-02-04T12:21:26;101269.38;;;8.87
85096;BMP280;75436;53.502;10.030;2024-02-04T12:23:52;101262.84;;;8.85
85096;BMP280;75436;53.502;10.030;2024-02-04T12:26:18;101259.50;;;8.97
85096;BMP280;75436;53.502;10.030;2024-02-04T12:28:43;101267.81;;;8.86
85096;BMP280;75436;53.502;10.030;2024-02-04T12:31:24;101271.81;;;8.97
85096;BMP280;75436;53.502;10.030;2024-02-04T12:33:54;101288.44;;;9.06
85096;BMP280;75436;53.502;10.030;2024-02-04T12:36:41;101281.63;;;9.05
85096;BMP280;75436;53.502;10.030;2024-02-04T12:39:09;101290.47;;;9.09
85096;BMP280;75436;53.502;10.030;2024-02-04T12:41:37;101293.28;;;8.99
85096;BMP280;75436;53.502;10.030;2024-02-04T12:44:02;101283.66;;;8.95
85096;BMP280;75436;53.502;10.030;2024-02-04T12:46:30;101278.13;;;8.96
85096;BMP280;75436;53.502;10.030;2024-02-04T12:48:57;101285.91;;;9.14
85096;BMP280;75436;53.502;10.030;2024-02-04T12:51:27;101274.16;;;9.12
85096;BMP280;75436;53.502;10.030;2024-02-04T12:54:08;101272.81;;;9.14
85096;BMP280;75436;53.502;10.030;2024-02-04T12:59:31;101270.09;;;9.06
85096;BMP280;75436;53.502;10.030;2024-02-04T13:02:03;101275.31;;;9.06
85096;BMP280;75436;53.502;10.030;2024-02-04T13:04:42;101260.75;;;9.13
85096;BMP280;75436;53.502;10.030;2024-02-04T13:07:12;101265.25;;;8.99
85096;BMP280;75436;53.502;10.030;2024-02-04T13:09:39;101263.78;;;9.07
85096;BMP280;75436;53.502;10.030;2024-02-04T13:12:06;101276.09;;;9.06
85096;BMP280;75436;53.502;10.030;2024-02-04T13:14:34;101258.44;;;9.12
85096;BMP280;75436;53.502;10.030;2024-02-04T13:17:00;101257.28;;;8.91
85096;BMP280;75436;53.502;10.030;2024-02-04T13:19:32;101239.03;;;8.99
85096;BMP280;75436;53.502;10.030;2024-02-04T13:22:07;101260.22;;;9.16
85096;BMP280;75436;53.502;10.030;2024-02-04T13:24:39;101244.50;;;9.16
85096;BMP280;75436;53.502;10.030;2024-02-04T13:27:05;101247.56;;;8.92
85096;BMP280;75436;53.502;10.030;2024-02-04T13:29:36;101244.69;;;9.20
85096;BMP280;75436;53.502;10.030;2024-02-04T13:32:02;101247.59;;;9.18
85096;BMP280;75436;53.502;10.030;2024-02-04T13:34:28;101251.97;;;9.09
85096;BMP280;75436;53.502;10.030;2024-02-04T13:36:53;101228.94;;;9.06
85096;BMP280;75436;53.502;10.030;2024-02-04T13:39:19;101237.78;;;9.10
85096;BMP280;75436;53.502;10.030;2024-02-04T13:41:45;101233.41;;;9.19
85096;BMP280;75436;53.502;10.030;2024-02-04T13:44:10;101256.03;;;9.15
85096;BMP280;75436;53.502;10.030;2024-02-04T13:46:36;101236.25;;;9.09
85096;BMP280;75436;53.502;10.030;2024-02-04T13:49:02;101237.59;;;9.20
85096;BMP280;75436;53.502;10.030;2024-02-04T13:51:28;101238.75;;;9.14
85096;BMP280;75436;53.502;10.030;2024-02-04T13:53:53;101219.22;;;8.94
85096;BMP280;75436;53.502;10.030;2024-02-04T13:56:20;101237.88;;;9.05
85096;BMP280;75436;53.502;10.030;2024-02-04T13:58:45;101233.41;;;8.93
85096;BMP280;75436;53.502;10.030;2024-02-04T14:01:11;101230.50;;;9.21
85096;BMP280;75436;53.502;10.030;2024-02-04T14:03:38;101215.75;;;8.98